sensor_id;sensor_type;location;lat;lon;timestamp;temperature;humidity
41876;DHT22;27555;50.808;4.402;2023-03-01T00:01:55;3.50;89.40
41876;DHT22;27555;50.808;4.402;2023-03-01T00:04:21;3.40;89.60
41876;DHT22;27555;50.808;4.402;2023-03-01T00:06:47;3.30;89.60
41876;DHT22;27555;50.808;4.402;2023-03-01T00:09:14;3.20;90.20
41876;DHT22;27555;50.808;4.402;2023-03-01T00:11:40;3.20;90.10
41876;DHT22;27555;50.808;4.402;2023-03-01T00:14:05;3.30;90.10
41876;DHT22;27555;50.808;4.402;2023-03-01T00:16:34;3.30;90.10
41876;DHT22;27555;50.808;4.402;2023-03-01T00:19:00;3.30;90.10
41876;DHT22;27555;50.808;4.402;2023-03-01T00:21:27;3.30;90.10
41876;DHT22;27555;50.808;4.402;2023-03-01T00:23:53;3.20;90.20
41876;DHT22;27555;50.808;4.402;2023-03-01T00:26:21;3.10;90.30
41876;DHT22;27555;50.808;4.402;2023-03-01T00:28:47;3.10;90.40
41876;DHT22;27555;50.808;4.402;2023-03-01T00:31:23;3.10;90.50
41876;DHT22;27555;50.808;4.402;2023-03-01T00:33:53;3.20;90.40
41876;DHT22;27555;50.808;4.402;2023-03-01T00:36:22;3.20;90.50
41876;DHT22;27555;50.808;4.402;2023-03-01T00:38:48;3.30;90.20
41876;DHT22;27555;50.808;4.402;2023-03-01T00:41:16;3.20;90.30
41876;DHT22;27555;50.808;4.402;2023-03-01T00:43:42;3.10;90.50
41876;DHT22;27555;50.808;4.402;2023-03-01T00:46:13;3.00;90.70
41876;DHT22;27555;50.808;4.402;2023-03-01T00:48:39;3.00;90.70
41876;DHT22;27555;50.808;4.402;2023-03-01T00:51:10;3.00;90.60
41876;DHT22;27555;50.808;4.402;2023-03-01T00:53:37;3.10;90.60
41876;DHT22;27555;50.808;4.402;2023-03-01T00:56:05;3.10;90.60
41876;DHT22;27555;50.808;4.402;2023-03-01T00:58:31;3.00;90.80
41876;DHT22;27555;50.808;4.402;2023-03-01T01:00:56;2.90;90.90
41876;DHT22;27555;50.808;4.402;2023-03-01T01:03:22;2.70;91.00
41876;DHT22;27555;50.808;4.402;2023-03-01T01:05:50;2.50;91.40
41876;DHT22;27555;50.808;4.402;2023-03-01T01:08:16;2.50;91.50
41876;DHT22;27555;50.808;4.402;2023-03-01T01:10:44;2.60;91.40
41876;DHT22;27555;50.808;4.402;2023-03-01T01:13:10;2.50;91.40
41876;DHT22;27555;50.808;4.402;2023-03-01T01:15:36;2.50;91.40
41876;DHT22;27555;50.808;4.402;2023-03-01T01:18:02;2.50;91.50
41876;DHT22;27555;50.808;4.402;2023-03-01T01:20:28;2.60;91.40
41876;DHT22;27555;50.808;4.402;2023-03-01T01:22:53;2.70;91.30
41876;DHT22;27555;50.808;4.402;2023-03-01T01:25:19;2.80;91.10
41876;DHT22;27555;50.808;4.402;2023-03-01T01:27:45;2.70;91.10
41876;DHT22;27555;50.808;4.402;2023-03-01T01:30:11;2.90;91.00
41876;DHT22;27555;50.808;4.402;2023-03-01T01:32:37;2.80;90.80
41876;DHT22;27555;50.808;4.402;2023-03-01T01:35:02;2.80;91.00
41876;DHT22;27555;50.808;4.402;2023-03-01T01:37:28;2.70;91.10
41876;DHT22;27555;50.808;4.402;2023-03-01T01:40:00;2.80;91.30
41876;DHT22;27555;50.808;4.402;2023-03-01T01:42:27;2.80;91.10
41876;DHT22;27555;50.808;4.402;2023-03-01T01:48:01;2.80;91.10
41876;DHT22;27555;50.808;4.402;2023-03-01T01:50:29;2.60;91.30
41876;DHT22;27555;50.808;4.402;2023-03-01T01:53:05;2.60;91.40
41876;DHT22;27555;50.808;4.402;2023-03-01T01:55:31;2.40;91.30
41876;DHT22;27555;50.808;4.402;2023-03-01T01:58:00;2.60;91.30
41876;DHT22;27555;50.808;4.402;2023-03-01T02:00:29;2.50;91.40
41876;DHT22;27555;50.808;4.402;2023-03-01T02:02:59;2.30;91.70
41876;DHT22;27555;50.808;4.402;2023-03-01T02:05:38;2.20;91.90
41876;DHT22;27555;50.808;4.402;2023-03-01T02:08:06;2.30;91.80
41876;DHT22;27555;50.808;4.402;2023-03-01T02:10:34;2.50;91.50
41876;DHT22;27555;50.808;4.402;2023-03-01T02:13:00;2.60;91.40
41876;DHT22;27555;50.808;4.402;2023-03-01T02:15:26;2.60;91.50
41876;DHT22;27555;50.808;4.402;2023-03-01T02:17:54;2.40;91.70
41876;DHT22;27555;50.808;4.402;2023-03-01T02:22:52;2.20;92.00
41876;DHT22;27555;50.808;4.402;2023-03-01T02:27:59;2.10;92.10
41876;DHT22;27555;50.808;4.402;2023-03-01T02:30:27;2.30;92.10
41876;DHT22;27555;50.808;4.402;2023-03-01T02:32:54;2.40;91.80
41876;DHT22;27555;50.808;4.402;2023-03-01T02:35:32;2.40;91.80
41876;DHT22;27555;50.808;4.402;2023-03-01T02:37:58;2.50;91.70
41876;DHT22;27555;50.808;4.402;2023-03-01T02:40:30;2.50;91.70
41876;DHT22;27555;50.808;4.402;2023-03-01T02:42:58;2.40;91.80
41876;DHT22;27555;50.808;4.402;2023-03-01T02:45:25;2.50;91.90
41876;DHT22;27555;50.808;4.402;2023-03-01T02:47:54;2.50;91.90
41876;DHT22;27555;50.808;4.402;2023-03-01T02:51:01;2.40;91.90
41876;DHT22;27555;50.808;4.402;2023-03-01T02:53:43;2.40;92.00
41876;DHT22;27555;50.808;4.402;2023-03-01T02:56:10;2.40;91.80
41876;DHT22;27555;50.808;4.402;2023-03-01T02:58:40;2.40;91.90
41876;DHT22;27555;50.808;4.402;2023-03-01T03:01:11;2.30;92.00
41876;DHT22;27555;50.808;4.402;2023-03-01T03:03:39;2.30;92.20
41876;DHT22;27555;50.808;4.402;2023-03-01T03:06:05;2.30;92.10
41876;DHT22;27555;50.808;4.402;2023-03-01T03:08:30;2.20;92.20
41876;DHT22;27555;50.808;4.402;2023-03-01T03:10:56;2.20;92.30
41876;DHT22;27555;50.808;4.402;2023-03-01T03:13:21;2.20;92.30
41876;DHT22;27555;50.808;4.402;2023-03-01T03:15:47;2.20;92.50
41876;DHT22;27555;50.808;4.402;2023-03-01T03:18:16;2.20;92.40
41876;DHT22;27555;50.808;4.402;2023-03-01T03:20:43;2.10;92.40
41876;DHT22;27555;50.808;4.402;2023-03-01T03:23:09;2.10;92.50
41876;DHT22;27555;50.808;4.402;2023-03-01T03:25:35;2.20;92.50
41876;DHT22;27555;50.808;4.402;2023-03-01T03:28:05;2.10;92.40
41876;DHT22;27555;50.808;4.402;2023-03-01T03:30:36;2.10;92.50
41876;DHT22;27555;50.808;4.402;2023-03-01T03:33:04;2.10;92.50
41876;DHT22;27555;50.808;4.402;2023-03-01T03:35:40;2.00;92.70
41876;DHT22;27555;50.808;4.402;2023-03-01T03:38:08;2.00;92.70
41876;DHT22;27555;50.808;4.402;2023-03-01T03:40:47;2.00;92.70
41876;DHT22;27555;50.808;4.402;2023-03-01T03:43:22;2.00;92.80
41876;DHT22;27555;50.808;4.402;2023-03-01T03:45:49;1.90;92.70
41876;DHT22;27555;50.808;4.402;2023-03-01T03:48:15;2.00;92.80
41876;DHT22;27555;50.808;4.402;2023-03-01T03:50:41;2.00;92.60
41876;DHT22;27555;50.808;4.402;2023-03-01T03:53:09;1.80;92.90
41876;DHT22;27555;50.808;4.402;2023-03-01T03:55:36;1.60;93.20
41876;DHT22;27555;50.808;4.402;2023-03-01T03:58:05;1.50;93.40
41876;DHT22;27555;50.808;4.402;2023-03-01T04:00:39;1.50;93.50
41876;DHT22;27555;50.808;4.402;2023-03-01T04:03:05;1.70;93.10
41876;DHT22;27555;50.808;4.402;2023-03-01T04:05:31;1.60;93.40
41876;DHT22;27555;50.808;4.402;2023-03-01T04:07:57;1.60;93.40
41876;DHT22;27555;50.808;4.402;2023-03-01T04:10:31;1.50;93.40
41876;DHT22;27555;50.808;4.402;2023-03-01T04:12:57;1.70;93.20
41876;DHT22;27555;50.808;4.402;2023-03-01T04:15:24;1.60;93.20
41876;DHT22;27555;50.808;4.402;2023-03-01T04:17:51;1.60;93.20
41876;DHT22;27555;50.808;4.402;2023-03-01T04:20:20;1.60;93.30
41876;DHT22;27555;50.808;4.402;2023-03-01T04:22:58;1.50;93.60
41876;DHT22;27555;50.808;4.402;2023-03-01T04:25:24;1.50;93.60
41876;DHT22;27555;50.808;4.402;2023-03-01T04:27:50;1.50;93.50
41876;DHT22;27555;50.808;4.402;2023-03-01T04:30:16;1.50;93.60
41876;DHT22;27555;50.808;4.402;2023-03-01T04:32:42;1.70;93.60
41876;DHT22;27555;50.808;4.402;2023-03-01T04:35:08;1.70;93.20
41876;DHT22;27555;50.808;4.402;2023-03-01T04:37:34;1.80;93.10
41876;DHT22;27555;50.808;4.402;2023-03-01T04:40:00;1.70;93.40
41876;DHT22;27555;50.808;4.402;2023-03-01T04:42:26;1.50;93.50
41876;DHT22;27555;50.808;4.402;2023-03-01T04:44:52;1.40;93.70
41876;DHT22;27555;50.808;4.402;2023-03-01T04:47:18;1.30;93.90
41876;DHT22;27555;50.808;4.402;2023-03-01T04:49:43;1.10;94.10
41876;DHT22;27555;50.808;4.402;2023-03-01T04:52:09;1.10;94.20
41876;DHT22;27555;50.808;4.402;2023-03-01T04:54:35;0.80;94.60
41876;DHT22;27555;50.808;4.402;2023-03-01T04:57:02;0.70;94.90
41876;DHT22;27555;50.808;4.402;2023-03-01T04:59:28;0.60;95.30
41876;DHT22;27555;50.808;4.402;2023-03-01T05:01:55;0.60;95.40
41876;DHT22;27555;50.808;4.402;2023-03-01T05:04:22;0.70;95.20
41876;DHT22;27555;50.808;4.402;2023-03-01T05:06:48;0.70;95.20
41876;DHT22;27555;50.808;4.402;2023-03-01T05:09:14;0.80;95.10
41876;DHT22;27555;50.808;4.402;2023-03-01T05:11:39;1.10;94.80
41876;DHT22;27555;50.808;4.402;2023-03-01T05:14:06;1.40;94.00
41876;DHT22;27555;50.808;4.402;2023-03-01T05:16:33;1.40;93.80
41876;DHT22;27555;50.808;4.402;2023-03-01T05:18:59;1.30;94.00
41876;DHT22;27555;50.808;4.402;2023-03-01T05:21:25;1.30;94.20
41876;DHT22;27555;50.808;4.402;2023-03-01T05:23:51;1.30;94.30
41876;DHT22;27555;50.808;4.402;2023-03-01T05:26:20;1.40;94.10
41876;DHT22;27555;50.808;4.402;2023-03-01T05:28:47;1.40;94.10
41876;DHT22;27555;50.808;4.402;2023-03-01T05:31:13;1.50;93.90
41876;DHT22;27555;50.808;4.402;2023-03-01T05:33:40;1.40;94.00
41876;DHT22;27555;50.808;4.402;2023-03-01T05:36:06;1.30;94.20
41876;DHT22;27555;50.808;4.402;2023-03-01T05:38:33;1.30;94.10
41876;DHT22;27555;50.808;4.402;2023-03-01T05:40:58;1.20;94.40
41876;DHT22;27555;50.808;4.402;2023-03-01T05:43:24;1.20;94.40
41876;DHT22;27555;50.808;4.402;2023-03-01T05:45:50;1.00;94.40
41876;DHT22;27555;50.808;4.402;2023-03-01T05:48:15;0.90;94.90
41876;DHT22;27555;50.808;4.402;2023-03-01T05:50:42;0.90;95.10
41876;DHT22;27555;50.808;4.402;2023-03-01T05:53:13;1.10;94.50
41876;DHT22;27555;50.808;4.402;2023-03-01T05:55:40;1.10;94.60
41876;DHT22;27555;50.808;4.402;2023-03-01T05:58:09;1.10;94.60
41876;DHT22;27555;50.808;4.402;2023-03-01T06:00:35;1.10;94.80
41876;DHT22;27555;50.808;4.402;2023-03-01T06:03:01;1.00;94.80
41876;DHT22;27555;50.808;4.402;2023-03-01T06:05:28;0.90;94.90
41876;DHT22;27555;50.808;4.402;2023-03-01T06:07:54;1.00;95.00
41876;DHT22;27555;50.808;4.402;2023-03-01T06:10:21;0.80;95.10
41876;DHT22;27555;50.808;4.402;2023-03-01T06:12:47;0.90;95.10
41876;DHT22;27555;50.808;4.402;2023-03-01T06:15:14;0.90;95.10
41876;DHT22;27555;50.808;4.402;2023-03-01T06:17:42;0.90;95.00
41876;DHT22;27555;50.808;4.402;2023-03-01T06:20:10;1.00;95.00
41876;DHT22;27555;50.808;4.402;2023-03-01T06:22:37;1.00;95.00
41876;DHT22;27555;50.808;4.402;2023-03-01T06:25:05;1.00;95.20
41876;DHT22;27555;50.808;4.402;2023-03-01T06:27:30;1.00;95.10
41876;DHT22;27555;50.808;4.402;2023-03-01T06:29:56;0.90;95.20
41876;DHT22;27555;50.808;4.402;2023-03-01T06:32:22;0.90;95.30
41876;DHT22;27555;50.808;4.402;2023-03-01T06:34:47;1.00;95.20
41876;DHT22;27555;50.808;4.402;2023-03-01T06:37:13;0.90;95.10
41876;DHT22;27555;50.808;4.402;2023-03-01T06:39:38;0.90;95.20
41876;DHT22;27555;50.808;4.402;2023-03-01T06:42:04;0.90;95.30
41876;DHT22;27555;50.808;4.402;2023-03-01T06:44:30;0.90;95.30
41876;DHT22;27555;50.808;4.402;2023-03-01T06:46:56;0.90;95.40
41876;DHT22;27555;50.808;4.402;2023-03-01T06:49:22;0.90;95.40
41876;DHT22;27555;50.808;4.402;2023-03-01T06:51:47;0.80;95.30
41876;DHT22;27555;50.808;4.402;2023-03-01T06:54:13;0.70;95.90
41876;DHT22;27555;50.808;4.402;2023-03-01T06:56:38;0.80;95.80
41876;DHT22;27555;50.808;4.402;2023-03-01T06:59:04;1.00;95.50
41876;DHT22;27555;50.808;4.402;2023-03-01T07:01:31;1.00;95.20
41876;DHT22;27555;50.808;4.402;2023-03-01T07:03:56;0.80;95.50
41876;DHT22;27555;50.808;4.402;2023-03-01T07:06:22;0.80;95.70
41876;DHT22;27555;50.808;4.402;2023-03-01T07:08:48;1.00;95.40
41876;DHT22;27555;50.808;4.402;2023-03-01T07:11:14;1.10;95.20
41876;DHT22;27555;50.808;4.402;2023-03-01T07:13:40;1.00;95.50
41876;DHT22;27555;50.808;4.402;2023-03-01T07:16:06;1.00;95.60
41876;DHT22;27555;50.808;4.402;2023-03-01T07:18:32;1.30;95.90
41876;DHT22;27555;50.808;4.402;2023-03-01T07:20:58;2.00;95.50
41876;DHT22;27555;50.808;4.402;2023-03-01T07:23:23;3.00;95.00
41876;DHT22;27555;50.808;4.402;2023-03-01T07:25:53;3.90;93.90
41876;DHT22;27555;50.808;4.402;2023-03-01T07:28:19;4.40;91.90
41876;DHT22;27555;50.808;4.402;2023-03-01T07:30:45;5.10;91.60
41876;DHT22;27555;50.808;4.402;2023-03-01T07:33:11;5.90;90.80
41876;DHT22;27555;50.808;4.402;2023-03-01T07:35:36;6.30;88.90
41876;DHT22;27555;50.808;4.402;2023-03-01T07:38:02;7.00;86.00
41876;DHT22;27555;50.808;4.402;2023-03-01T07:40:27;6.90;87.00
41876;DHT22;27555;50.808;4.402;2023-03-01T07:42:57;7.00;85.20
41876;DHT22;27555;50.808;4.402;2023-03-01T07:45:23;6.90;85.70
41876;DHT22;27555;50.808;4.402;2023-03-01T07:47:53;7.30;84.30
41876;DHT22;27555;50.808;4.402;2023-03-01T07:50:19;7.80;84.10
41876;DHT22;27555;50.808;4.402;2023-03-01T07:52:46;8.20;83.30
41876;DHT22;27555;50.808;4.402;2023-03-01T07:55:12;8.40;82.70
41876;DHT22;27555;50.808;4.402;2023-03-01T07:57:38;8.80;82.40
41876;DHT22;27555;50.808;4.402;2023-03-01T08:00:06;9.10;81.00
41876;DHT22;27555;50.808;4.402;2023-03-01T08:02:32;9.60;80.10
41876;DHT22;27555;50.808;4.402;2023-03-01T08:04:58;9.60;79.00
41876;DHT22;27555;50.808;4.402;2023-03-01T08:07:23;9.60;79.10
41876;DHT22;27555;50.808;4.402;2023-03-01T08:09:49;9.20;80.10
41876;DHT22;27555;50.808;4.402;2023-03-01T08:12:14;9.60;78.80
41876;DHT22;27555;50.808;4.402;2023-03-01T08:14:42;9.70;78.00
41876;DHT22;27555;50.808;4.402;2023-03-01T08:17:08;10.10;77.90
41876;DHT22;27555;50.808;4.402;2023-03-01T08:19:33;10.40;78.10
41876;DHT22;27555;50.808;4.402;2023-03-01T08:22:01;10.30;77.10
41876;DHT22;27555;50.808;4.402;2023-03-01T08:24:28;10.60;77.40
41876;DHT22;27555;50.808;4.402;2023-03-01T08:26:53;10.90;76.40
41876;DHT22;27555;50.808;4.402;2023-03-01T08:29:19;10.60;76.40
41876;DHT22;27555;50.808;4.402;2023-03-01T08:31:45;11.10;76.30
41876;DHT22;27555;50.808;4.402;2023-03-01T08:34:13;10.90;76.20
41876;DHT22;27555;50.808;4.402;2023-03-01T08:36:41;10.80;76.50
41876;DHT22;27555;50.808;4.402;2023-03-01T08:39:09;11.50;75.10
41876;DHT22;27555;50.808;4.402;2023-03-01T08:41:35;11.30;75.20
41876;DHT22;27555;50.808;4.402;2023-03-01T08:44:01;11.50;74.50
41876;DHT22;27555;50.808;4.402;2023-03-01T08:46:28;11.10;75.00
41876;DHT22;27555;50.808;4.402;2023-03-01T08:48:54;11.10;75.40
41876;DHT22;27555;50.808;4.402;2023-03-01T08:51:21;10.60;75.90
41876;DHT22;27555;50.808;4.402;2023-03-01T08:53:47;11.20;75.50
41876;DHT22;27555;50.808;4.402;2023-03-01T08:56:14;11.60;74.90
41876;DHT22;27555;50.808;4.402;2023-03-01T08:58:39;12.30;74.10
41876;DHT22;27555;50.808;4.402;2023-03-01T09:01:09;12.80;72.40
41876;DHT22;27555;50.808;4.402;2023-03-01T09:03:35;13.40;72.00
41876;DHT22;27555;50.808;4.402;2023-03-01T09:06:02;13.00;71.90
41876;DHT22;27555;50.808;4.402;2023-03-01T09:08:28;13.30;71.70
41876;DHT22;27555;50.808;4.402;2023-03-01T09:10:54;13.00;72.00
41876;DHT22;27555;50.808;4.402;2023-03-01T09:13:20;13.60;70.90
41876;DHT22;27555;50.808;4.402;2023-03-01T09:15:45;13.80;70.80
41876;DHT22;27555;50.808;4.402;2023-03-01T09:18:11;13.20;70.80
41876;DHT22;27555;50.808;4.402;2023-03-01T09:20:37;12.50;72.40
41876;DHT22;27555;50.808;4.402;2023-03-01T09:23:02;12.50;72.00
41876;DHT22;27555;50.808;4.402;2023-03-01T09:25:28;12.70;72.10
41876;DHT22;27555;50.808;4.402;2023-03-01T09:27:54;13.20;71.30
41876;DHT22;27555;50.808;4.402;2023-03-01T09:30:20;13.70;70.50
41876;DHT22;27555;50.808;4.402;2023-03-01T09:32:46;14.00;70.30
41876;DHT22;27555;50.808;4.402;2023-03-01T09:35:12;13.60;70.30
41876;DHT22;27555;50.808;4.402;2023-03-01T09:37:38;12.30;72.30
41876;DHT22;27555;50.808;4.402;2023-03-01T09:40:06;12.60;72.30
41876;DHT22;27555;50.808;4.402;2023-03-01T09:42:34;13.60;71.40
41876;DHT22;27555;50.808;4.402;2023-03-01T09:45:10;13.70;70.20
41876;DHT22;27555;50.808;4.402;2023-03-01T09:47:36;12.90;71.00
41876;DHT22;27555;50.808;4.402;2023-03-01T09:55:54;13.70;71.00
41876;DHT22;27555;50.808;4.402;2023-03-01T09:57:59;14.60;70.10
41876;DHT22;27555;50.808;4.402;2023-03-01T10:00:39;15.10;68.70
41876;DHT22;27555;50.808;4.402;2023-03-01T10:03:17;15.40;68.10
41876;DHT22;27555;50.808;4.402;2023-03-01T10:06:13;15.70;68.10
41876;DHT22;27555;50.808;4.402;2023-03-01T10:09:02;15.20;68.20
41876;DHT22;27555;50.808;4.402;2023-03-01T10:11:31;15.20;68.20
41876;DHT22;27555;50.808;4.402;2023-03-01T10:14:21;14.70;67.60
41876;DHT22;27555;50.808;4.402;2023-03-01T10:17:06;13.80;68.60
41876;DHT22;27555;50.808;4.402;2023-03-01T10:19:40;13.50;69.60
41876;DHT22;27555;50.808;4.402;2023-03-01T10:22:22;13.10;69.80
41876;DHT22;27555;50.808;4.402;2023-03-01T10:24:54;13.20;69.60
41876;DHT22;27555;50.808;4.402;2023-03-01T10:27:29;14.50;68.90
41876;DHT22;27555;50.808;4.402;2023-03-01T10:30:39;14.40;68.10
41876;DHT22;27555;50.808;4.402;2023-03-01T10:32:58;14.60;68.00
41876;DHT22;27555;50.808;4.402;2023-03-01T10:35:28;14.40;67.70
41876;DHT22;27555;50.808;4.402;2023-03-01T10:40:24;14.10;68.10
41876;DHT22;27555;50.808;4.402;2023-03-01T10:42:50;14.40;68.00
41876;DHT22;27555;50.808;4.402;2023-03-01T10:48:16;14.90;67.30
41876;DHT22;27555;50.808;4.402;2023-03-01T10:50:46;15.00;67.50
41876;DHT22;27555;50.808;4.402;2023-03-01T10:56:06;15.60;66.50
41876;DHT22;27555;50.808;4.402;2023-03-01T10:58:34;15.50;66.30
41876;DHT22;27555;50.808;4.402;2023-03-01T11:03:40;16.30;65.00
41876;DHT22;27555;50.808;4.402;2023-03-01T11:06:21;16.40;64.80
41876;DHT22;27555;50.808;4.402;2023-03-01T11:08:48;16.40;65.00
41876;DHT22;27555;50.808;4.402;2023-03-01T11:14:07;16.80;64.00
41876;DHT22;27555;50.808;4.402;2023-03-01T11:16:34;16.70;64.10
41876;DHT22;27555;50.808;4.402;2023-03-01T11:19:21;16.80;64.40
41876;DHT22;27555;50.808;4.402;2023-03-01T11:22:08;16.80;63.30
41876;DHT22;27555;50.808;4.402;2023-03-01T11:24:46;16.40;64.30
41876;DHT22;27555;50.808;4.402;2023-03-01T11:27:23;17.00;63.60
41876;DHT22;27555;50.808;4.402;2023-03-01T11:29:59;16.30;64.10
41876;DHT22;27555;50.808;4.402;2023-03-01T11:32:29;16.80;63.90
41876;DHT22;27555;50.808;4.402;2023-03-01T11:35:04;16.60;63.80
41876;DHT22;27555;50.808;4.402;2023-03-01T11:37:44;16.40;63.90
41876;DHT22;27555;50.808;4.402;2023-03-01T11:40:17;16.30;64.40
41876;DHT22;27555;50.808;4.402;2023-03-01T11:43:06;17.20;63.50
41876;DHT22;27555;50.808;4.402;2023-03-01T11:50:50;16.50;62.60
41876;DHT22;27555;50.808;4.402;2023-03-01T11:58:29;15.80;63.90
41876;DHT22;27555;50.808;4.402;2023-03-01T12:06:19;16.60;62.90
41876;DHT22;27555;50.808;4.402;2023-03-01T12:12:06;17.30;62.60
41876;DHT22;27555;50.808;4.402;2023-03-01T12:20:25;17.50;62.10
41876;DHT22;27555;50.808;4.402;2023-03-01T12:28:29;16.70;62.00
41876;DHT22;27555;50.808;4.402;2023-03-01T12:33:29;16.70;62.10
41876;DHT22;27555;50.808;4.402;2023-03-01T12:42:09;17.20;61.60
41876;DHT22;27555;50.808;4.402;2023-03-01T12:44:43;16.10;61.70
41876;DHT22;27555;50.808;4.402;2023-03-01T12:52:46;16.50;62.00
41876;DHT22;27555;50.808;4.402;2023-03-01T12:55:33;16.50;61.60
41876;DHT22;27555;50.808;4.402;2023-03-01T13:06:52;14.10;64.00
41876;DHT22;27555;50.808;4.402;2023-03-01T13:09:42;12.80;65.40
41876;DHT22;27555;50.808;4.402;2023-03-01T13:17:50;10.30;69.60
41876;DHT22;27555;50.808;4.402;2023-03-01T13:20:19;9.40;71.30
41876;DHT22;27555;50.808;4.402;2023-03-01T13:22:46;9.00;72.40
41876;DHT22;27555;50.808;4.402;2023-03-01T13:25:18;9.10;72.20
41876;DHT22;27555;50.808;4.402;2023-03-01T13:27:46;9.00;72.00
41876;DHT22;27555;50.808;4.402;2023-03-01T13:30:38;9.20;71.20
41876;DHT22;27555;50.808;4.402;2023-03-01T13:35:49;9.00;73.00
41876;DHT22;27555;50.808;4.402;2023-03-01T13:49:27;8.20;74.70
41876;DHT22;27555;50.808;4.402;2023-03-01T13:51:54;8.10;74.60
41876;DHT22;27555;50.808;4.402;2023-03-01T13:54:29;8.20;74.50
41876;DHT22;27555;50.808;4.402;2023-03-01T13:56:58;8.20;74.40
41876;DHT22;27555;50.808;4.402;2023-03-01T13:59:24;8.40;73.80
41876;DHT22;27555;50.808;4.402;2023-03-01T14:01:57;8.20;72.50
41876;DHT22;27555;50.808;4.402;2023-03-01T14:04:31;8.10;73.50
41876;DHT22;27555;50.808;4.402;2023-03-01T14:07:18;8.00;73.60
41876;DHT22;27555;50.808;4.402;2023-03-01T14:09:47;8.00;73.80
41876;DHT22;27555;50.808;4.402;2023-03-01T14:12:50;8.00;74.10
41876;DHT22;27555;50.808;4.402;2023-03-01T14:15:39;8.50;73.40
41876;DHT22;27555;50.808;4.402;2023-03-01T14:20:57;8.50;73.60
41876;DHT22;27555;50.808;4.402;2023-03-01T14:23:23;8.50;74.30
41876;DHT22;27555;50.808;4.402;2023-03-01T14:25:54;8.30;74.00
41876;DHT22;27555;50.808;4.402;2023-03-01T14:28:21;8.30;73.80
41876;DHT22;27555;50.808;4.402;2023-03-01T14:30:50;8.30;74.40
41876;DHT22;27555;50.808;4.402;2023-03-01T14:33:34;8.10;74.50
41876;DHT22;27555;50.808;4.402;2023-03-01T14:36:11;8.00;74.70
41876;DHT22;27555;50.808;4.402;2023-03-01T14:38:42;8.00;73.70
41876;DHT22;27555;50.808;4.402;2023-03-01T14:43:43;8.10;74.60
41876;DHT22;27555;50.808;4.402;2023-03-01T14:46:39;8.20;74.70
41876;DHT22;27555;50.808;4.402;2023-03-01T14:49:14;8.10;74.60
41876;DHT22;27555;50.808;4.402;2023-03-01T14:51:43;7.90;74.90
41876;DHT22;27555;50.808;4.402;2023-03-01T14:54:35;7.80;75.00
41876;DHT22;27555;50.808;4.402;2023-03-01T14:57:03;7.80;75.00
41876;DHT22;27555;50.808;4.402;2023-03-01T14:59:29;7.80;75.30
41876;DHT22;27555;50.808;4.402;2023-03-01T15:01:57;7.70;75.80
41876;DHT22;27555;50.808;4.402;2023-03-01T15:04:24;7.80;75.60
41876;DHT22;27555;50.808;4.402;2023-03-01T15:06:52;8.00;74.10
41876;DHT22;27555;50.808;4.402;2023-03-01T15:09:19;8.00;74.10
41876;DHT22;27555;50.808;4.402;2023-03-01T15:11:45;8.20;74.70
41876;DHT22;27555;50.808;4.402;2023-03-01T15:16:53;8.30;74.30
41876;DHT22;27555;50.808;4.402;2023-03-01T15:19:19;8.40;73.90
41876;DHT22;27555;50.808;4.402;2023-03-01T15:21:48;8.20;74.80
41876;DHT22;27555;50.808;4.402;2023-03-01T15:24:22;8.10;75.20
41876;DHT22;27555;50.808;4.402;2023-03-01T15:27:00;8.30;75.00
41876;DHT22;27555;50.808;4.402;2023-03-01T15:29:33;8.20;75.00
41876;DHT22;27555;50.808;4.402;2023-03-01T15:32:26;8.00;75.50
41876;DHT22;27555;50.808;4.402;2023-03-01T15:34:54;8.10;75.60
41876;DHT22;27555;50.808;4.402;2023-03-01T15:37:45;8.00;75.70
41876;DHT22;27555;50.808;4.402;2023-03-01T15:43:00;7.80;76.50
41876;DHT22;27555;50.808;4.402;2023-03-01T15:45:28;7.70;77.00
41876;DHT22;27555;50.808;4.402;2023-03-01T15:47:57;7.80;77.10
41876;DHT22;27555;50.808;4.402;2023-03-01T15:50:34;8.00;76.60
41876;DHT22;27555;50.808;4.402;2023-03-01T15:53:04;8.40;74.90
41876;DHT22;27555;50.808;4.402;2023-03-01T15:55:32;8.50;74.80
41876;DHT22;27555;50.808;4.402;2023-03-01T15:58:00;8.50;75.40
41876;DHT22;27555;50.808;4.402;2023-03-01T16:00:28;8.60;74.80
41876;DHT22;27555;50.808;4.402;2023-03-01T16:02:54;8.80;73.70
41876;DHT22;27555;50.808;4.402;2023-03-01T16:05:29;8.60;74.10
41876;DHT22;27555;50.808;4.402;2023-03-01T16:07:56;8.50;73.80
41876;DHT22;27555;50.808;4.402;2023-03-01T16:10:22;8.30;74.00
41876;DHT22;27555;50.808;4.402;2023-03-01T16:12:49;8.00;75.00
41876;DHT22;27555;50.808;4.402;2023-03-01T16:15:18;7.90;74.50
41876;DHT22;27555;50.808;4.402;2023-03-01T16:17:44;8.00;74.00
41876;DHT22;27555;50.808;4.402;2023-03-01T16:20:11;7.90;74.30
41876;DHT22;27555;50.808;4.402;2023-03-01T16:22:37;7.70;74.70
41876;DHT22;27555;50.808;4.402;2023-03-01T16:25:02;7.50;75.30
41876;DHT22;27555;50.808;4.402;2023-03-01T16:27:28;7.30;76.10
41876;DHT22;27555;50.808;4.402;2023-03-01T16:29:53;7.30;76.30
41876;DHT22;27555;50.808;4.402;2023-03-01T16:32:19;7.50;76.10
41876;DHT22;27555;50.808;4.402;2023-03-01T16:34:45;7.50;76.40
41876;DHT22;27555;50.808;4.402;2023-03-01T16:37:14;7.70;75.20
41876;DHT22;27555;50.808;4.402;2023-03-01T16:39:40;7.90;74.70
41876;DHT22;27555;50.808;4.402;2023-03-01T16:42:05;7.50;75.40
41876;DHT22;27555;50.808;4.402;2023-03-01T16:44:31;7.50;75.10
41876;DHT22;27555;50.808;4.402;2023-03-01T16:46:56;7.80;74.80
41876;DHT22;27555;50.808;4.402;2023-03-01T16:49:22;7.80;74.40
41876;DHT22;27555;50.808;4.402;2023-03-01T16:51:48;7.80;74.50
41876;DHT22;27555;50.808;4.402;2023-03-01T16:54:13;7.80;74.70
41876;DHT22;27555;50.808;4.402;2023-03-01T16:56:39;7.70;75.00
41876;DHT22;27555;50.808;4.402;2023-03-01T16:59:05;7.40;75.90
41876;DHT22;27555;50.808;4.402;2023-03-01T17:01:31;7.10;76.50
41876;DHT22;27555;50.808;4.402;2023-03-01T17:04:03;6.90;77.40
41876;DHT22;27555;50.808;4.402;2023-03-01T17:06:28;6.80;77.80
41876;DHT22;27555;50.808;4.402;2023-03-01T17:08:54;6.80;77.80
41876;DHT22;27555;50.808;4.402;2023-03-01T17:11:21;7.00;77.60
41876;DHT22;27555;50.808;4.402;2023-03-01T17:13:47;7.30;77.20
41876;DHT22;27555;50.808;4.402;2023-03-01T17:16:15;7.40;76.90
41876;DHT22;27555;50.808;4.402;2023-03-01T17:18:42;7.30;77.00
41876;DHT22;27555;50.808;4.402;2023-03-01T17:21:09;7.30;77.20
41876;DHT22;27555;50.808;4.402;2023-03-01T17:23:38;7.30;77.40
41876;DHT22;27555;50.808;4.402;2023-03-01T17:26:04;7.20;77.70
41876;DHT22;27555;50.808;4.402;2023-03-01T17:28:31;7.20;77.60
41876;DHT22;27555;50.808;4.402;2023-03-01T17:30:59;6.90;78.60
41876;DHT22;27555;50.808;4.402;2023-03-01T17:33:25;7.00;78.30
41876;DHT22;27555;50.808;4.402;2023-03-01T17:35:50;7.40;77.70
41876;DHT22;27555;50.808;4.402;2023-03-01T17:38:16;7.30;77.80
41876;DHT22;27555;50.808;4.402;2023-03-01T17:40:43;7.20;78.10
41876;DHT22;27555;50.808;4.402;2023-03-01T17:43:13;7.10;78.70
41876;DHT22;27555;50.808;4.402;2023-03-01T17:45:39;6.90;79.30